Time;durP1;ratioP1;P1;durP2;ratioP2;P2;SDS_P1;SDS_P2;PMS_P1;PMS_P2;Temp;Humidity;BMP_temperature;BMP_pressure;BME280_temperature;BME280_humidity;BME280_pressure;Samples;Min_cycle;Max_cycle;Signal;HPM_P1;HPM_P2
2023/01/08 00:00:58;;;;;;;1.63;1.53;;;;;;;3.46;100.00;100727.38;5069025;28;20207;-74
2023/01/08 00:03:25;;;;;;;1.50;1.50;;;;;;;3.40;100.00;100730.47;5070879;28;20248;-73
2023/01/08 00:05:52;;;;;;;1.00;1.00;;;;;;;3.31;100.00;100732.53;5062558;28;20200;-72
2023/01/08 00:08:18;;;;;;;2.57;2.47;;;;;;;3.21;100.00;100730.25;5068021;28;20191;-76
2023/01/08 00:10:45;;;;;;;0.90;0.90;;;;;;;3.12;100.00;100732.34;5054543;28;20810;-73
2023/01/08 00:13:12;;;;;;;0.80;0.80;;;;;;;2.97;100.00;100714.44;5069319;28;20749;-73
2023/01/08 00:15:40;;;;;;;1.33;1.33;;;;;;;3.05;100.00;100729.34;5070678;28;20216;-73
2023/01/08 00:18:07;;;;;;;4.07;3.77;;;;;;;2.62;100.00;100654.41;5065919;28;20203;-74
2023/01/08 00:20:34;;;;;;;0.90;0.90;;;;;;;2.85;100.00;100711.19;5070380;28;20202;-73
2023/01/08 00:23:00;;;;;;;1.10;1.10;;;;;;;2.96;100.00;100745.09;5061200;28;20603;-73
2023/01/08 00:25:27;;;;;;;0.90;0.90;;;;;;;2.76;100.00;100707.25;5050994;28;20258;-73
2023/01/08 00:27:54;;;;;;;0.80;0.80;;;;;;;2.91;100.00;100738.84;5061737;28;20218;-74
2023/01/08 00:30:21;;;;;;;0.90;0.90;;;;;;;2.67;100.00;100706.75;5070544;28;20720;-73
2023/01/08 00:32:49;;;;;;;0.90;0.90;;;;;;;2.84;100.00;100741.84;5069309;28;20206;-74
2023/01/08 00:35:16;;;;;;;1.00;1.00;;;;;;;2.82;100.00;100738.31;5067023;28;20204;-74
2023/01/08 00:37:42;;;;;;;0.90;0.90;;;;;;;2.75;100.00;100749.88;5055521;28;20282;-73
2023/01/08 00:40:10;;;;;;;2.30;2.20;;;;;;;2.66;100.00;100744.25;5054070;28;20678;-73
2023/01/08 00:42:37;;;;;;;1.20;1.20;;;;;;;2.60;100.00;100736.25;5058308;28;20202;-73
2023/01/08 00:45:05;;;;;;;1.00;1.00;;;;;;;2.47;100.00;100742.31;5033917;28;20305;-73
2023/01/08 00:47:31;;;;;;;1.07;1.07;;;;;;;2.51;100.00;100745.94;5034452;28;20207;-73
2023/01/08 00:49:59;;;;;;;0.90;0.90;;;;;;;2.54;100.00;100734.97;5070496;28;20319;-73
2023/01/08 00:52:26;;;;;;;0.90;0.90;;;;;;;2.31;100.00;100719.22;5037450;28;20207;-74
2023/01/08 00:54:53;;;;;;;0.90;0.90;;;;;;;2.38;100.00;100736.69;5071954;28;20205;-74
2023/01/08 00:57:20;;;;;;;0.87;0.87;;;;;;;2.33;100.00;100730.41;5056072;28;20195;-75
2023/01/08 00:59:47;;;;;;;0.83;0.83;;;;;;;2.22;100.00;100736.56;5053753;28;20199;-73
2023/01/08 01:02:14;;;;;;;1.77;1.77;;;;;;;1.78;100.00;100670.06;5053538;28;20588;-74
2023/01/08 01:04:41;;;;;;;0.90;0.90;;;;;;;2.08;100.00;100706.75;5053702;28;20602;-73
2023/01/08 01:07:09;;;;;;;0.70;0.70;;;;;;;2.16;100.00;100708.09;5053717;28;20199;-74
2023/01/08 01:09:36;;;;;;;6.37;5.77;;;;;;;2.26;100.00;100735.97;5054152;28;20235;-73
2023/01/08 01:12:03;;;;;;;0.90;0.90;;;;;;;2.29;100.00;100738.69;5053401;28;20207;-73
2023/01/08 01:14:29;;;;;;;0.90;0.90;;;;;;;2.25;100.00;100739.31;5053674;28;20638;-73
2023/01/08 01:16:56;;;;;;;2.13;2.03;;;;;;;2.18;100.00;100732.06;5053345;28;20612;-74
2023/01/08 01:19:23;;;;;;;0.90;0.90;;;;;;;2.21;100.00;100737.34;5053604;28;20609;-75
2023/01/08 01:21:50;;;;;;;1.10;1.10;;;;;;;2.24;100.00;100731.56;5053382;28;20738;-74
2023/01/08 01:24:18;;;;;;;0.87;0.87;;;;;;;2.30;100.00;100729.34;5053597;28;20653;-74
2023/01/08 01:26:45;;;;;;;0.80;0.80;;;;;;;2.34;100.00;100731.28;5015833;28;20623;-74
2023/01/08 01:29:11;;;;;;;0.90;0.90;;;;;;;2.36;100.00;100725.47;5056473;28;20704;-74
2023/01/08 01:31:38;;;;;;;0.83;0.83;;;;;;;2.39;100.00;100730.75;5055385;28;20216;-75
2023/01/08 01:34:05;;;;;;;1.47;1.47;;;;;;;2.34;100.00;100719.38;5067239;28;20206;-74
2023/01/08 01:36:32;;;;;;;0.80;0.80;;;;;;;2.34;100.00;100721.94;5072918;28;20206;-74
2023/01/08 01:38:59;;;;;;;1.00;1.00;;;;;;;2.32;100.00;100722.66;5066224;28;20210;-73
2023/01/08 01:41:30;;;;;;;1.50;1.50;;;;;;;2.29;100.00;100723.34;5066917;28;20207;-74
2023/01/08 01:43:58;;;;;;;0.90;0.90;;;;;;;2.29;100.00;100720.78;5072496;28;20209;-74
2023/01/08 01:46:38;;;;;;;1.00;1.00;;;;;;;2.36;100.00;100729.69;5062623;28;20283;-73
2023/01/08 01:49:10;;;;;;;0.93;0.93;;;;;;;2.37;100.00;100721.22;5053627;28;20199;-74
2023/01/08 01:51:39;;;;;;;1.10;1.10;;;;;;;2.32;100.00;100718.41;5053577;28;20225;-74
2023/01/08 01:54:09;;;;;;;1.63;1.63;;;;;;;1.96;100.00;100658.34;5068867;28;20198;-73
2023/01/08 01:56:37;;;;;;;0.90;0.90;;;;;;;2.32;100.00;100715.00;5049859;28;20204;-74
2023/01/08 01:59:05;;;;;;;0.70;0.70;;;;;;;2.30;100.00;100707.22;5060599;28;20195;-74
2023/01/08 02:01:33;;;;;;;2.53;2.43;;;;;;;2.18;100.00;100673.25;5067815;28;20206;-73
2023/01/08 02:04:00;;;;;;;0.80;0.80;;;;;;;2.20;100.00;100688.69;5072572;28;20203;-73
2023/01/08 02:06:37;;;;;;;0.90;0.90;;;;;;;2.36;100.00;100699.88;5071898;28;20690;-75
2023/01/08 02:09:10;;;;;;;0.83;0.83;;;;;;;2.33;100.00;100707.38;5072394;28;20689;-73
2023/01/08 02:11:47;;;;;;;0.80;0.80;;;;;;;2.23;100.00;100688.88;5068334;28;20203;-73
2023/01/08 02:14:22;;;;;;;1.00;1.00;;;;;;;2.33;100.00;100714.16;5072452;28;20202;-74
2023/01/08 02:16:56;;;;;;;1.10;1.10;;;;;;;2.21;100.00;100686.19;5072361;28;20225;-74
2023/01/08 02:19:36;;;;;;;0.90;0.90;;;;;;;2.38;100.00;100706.00;5071394;28;20209;-74
2023/01/08 02:22:12;;;;;;;0.90;0.90;;;;;;;2.25;100.00;100675.34;5055825;28;20198;-73
2023/01/08 02:24:51;;;;;;;1.00;1.00;;;;;;;2.38;100.00;100690.63;5058213;28;20202;-73
2023/01/08 02:27:21;;;;;;;0.80;0.80;;;;;;;2.47;100.00;100693.69;5071242;28;20206;-73
2023/01/08 02:29:48;;;;;;;0.70;0.70;;;;;;;2.40;100.00;100688.13;5070421;28;20234;-74
2023/01/08 02:32:16;;;;;;;0.90;0.90;;;;;;;2.41;100.00;100688.25;5052206;28;20207;-74
2023/01/08 02:34:42;;;;;;;1.10;1.10;;;;;;;2.42;100.00;100689.13;5033062;28;20199;-74
2023/01/08 02:37:10;;;;;;;1.20;1.20;;;;;;;2.33;100.00;100686.91;5058754;28;20195;-74
2023/01/08 02:39:55;;;;;;;0.90;0.90;;;;;;;2.10;100.00;100651.47;5071066;28;20206;-74
2023/01/08 02:42:34;;;;;;;0.77;0.77;;;;;;;2.33;100.00;100689.47;5070740;28;20199;-74
2023/01/08 02:45:10;;;;;;;0.90;0.90;;;;;;;2.40;100.00;100691.59;5069033;28;20195;-74
2023/01/08 02:47:41;;;;;;;0.83;0.83;;;;;;;2.37;100.00;100695.66;5051396;28;20199;-74
2023/01/08 02:50:18;;;;;;;0.73;0.73;;;;;;;2.43;100.00;100693.44;5016857;28;20223;-74
2023/01/08 02:52:55;;;;;;;0.80;0.80;;;;;;;2.29;100.00;100681.53;5036658;28;20259;-74
2023/01/08 02:55:25;;;;;;;0.80;0.80;;;;;;;2.37;100.00;100693.97;5069343;28;20194;-75
2023/01/08 02:57:53;;;;;;;2.60;2.50;;;;;;;2.37;100.00;100681.19;5071786;28;20616;-74
2023/01/08 03:00:21;;;;;;;0.80;0.80;;;;;;;2.29;100.00;100692.66;5049820;28;20207;-74
2023/01/08 03:02:51;;;;;;;0.90;0.90;;;;;;;2.32;100.00;100697.09;5060490;28;20206;-74
2023/01/08 03:05:23;;;;;;;0.80;0.80;;;;;;;2.34;100.00;100691.25;5071318;28;20203;-74
2023/01/08 03:07:50;;;;;;;0.70;0.70;;;;;;;2.30;100.00;100699.53;5071137;28;20661;-74
2023/01/08 03:10:20;;;;;;;1.00;1.00;;;;;;;2.24;100.00;100678.72;5065041;28;20223;-74
2023/01/08 03:12:54;;;;;;;0.90;0.90;;;;;;;2.38;100.00;100710.22;5071467;28;20206;-74
2023/01/08 03:15:29;;;;;;;0.87;0.87;;;;;;;2.22;100.00;100690.53;5071226;28;20195;-74
2023/01/08 03:17:59;;;;;;;1.27;1.27;;;;;;;2.30;100.00;100708.88;5071141;28;20261;-72
2023/01/08 03:20:26;;;;;;;0.80;0.80;;;;;;;2.24;100.00;100709.44;5066205;28;20208;-73
2023/01/08 03:22:56;;;;;;;0.70;0.70;;;;;;;2.10;100.00;100684.72;5051495;28;20257;-72
2023/01/08 03:25:29;;;;;;;0.77;0.77;;;;;;;2.31;100.00;100719.22;5051574;28;20230;-72
2023/01/08 03:28:01;;;;;;;0.90;0.90;;;;;;;2.22;100.00;100700.75;5050468;28;20202;-72
2023/01/08 03:30:30;;;;;;;0.70;0.70;;;;;;;2.39;100.00;100723.06;5057274;28;20378;-73
2023/01/08 03:33:00;;;;;;;0.70;0.70;;;;;;;2.41;100.00;100718.94;5032873;28;20669;-73
2023/01/08 03:35:32;;;;;;;0.90;0.90;;;;;;;2.33;100.00;100735.53;5051064;28;20215;-73
2023/01/08 03:38:06;;;;;;;14.20;2.20;;;;;;;2.41;100.00;100731.75;5051075;28;20329;-72
2023/01/08 03:40:39;;;;;;;0.80;0.80;;;;;;;2.45;100.00;100727.69;5050968;28;20256;-73
2023/01/08 03:43:05;;;;;;;0.80;0.80;;;;;;;2.40;100.00;100727.41;5058212;28;20203;-72
2023/01/08 03:45:37;;;;;;;1.23;1.23;;;;;;;2.33;100.00;100726.97;5065463;28;20191;-74
2023/01/08 03:48:05;;;;;;;0.90;0.90;;;;;;;2.11;100.00;100683.03;5055514;28;20650;-73
2023/01/08 03:50:33;;;;;;;1.50;1.50;;;;;;;2.22;100.00;100720.34;5050495;28;20668;-74
2023/01/08 03:53:00;;;;;;;0.90;0.90;;;;;;;2.22;100.00;100718.66;5051208;28;20195;-73
2023/01/08 03:55:29;;;;;;;0.80;0.80;;;;;;;2.29;100.00;100722.47;5050954;28;20226;-73
2023/01/08 03:57:56;;;;;;;0.90;0.90;;;;;;;1.93;100.00;100676.06;5051076;28;20211;-74
2023/01/08 04:00:23;;;;;;;0.90;0.90;;;;;;;2.09;100.00;100718.75;5051068;28;20211;-74
2023/01/08 04:02:51;;;;;;;0.90;0.90;;;;;;;2.15;100.00;100718.22;5051276;28;20203;-74
2023/01/08 04:05:18;;;;;;;0.93;0.93;;;;;;;2.07;100.00;100720.31;5015963;28;20196;-74
2023/01/08 04:07:44;;;;;;;1.00;1.00;;;;;;;1.86;100.00;100706.28;5051412;28;20621;-74
2023/01/08 04:10:11;;;;;;;1.07;1.07;;;;;;;1.84;100.00;100710.44;5054577;28;20602;-74
2023/01/08 04:12:38;;;;;;;0.90;0.90;;;;;;;1.81;100.00;100720.47;5054860;28;20203;-73
2023/01/08 04:15:06;;;;;;;0.90;0.90;;;;;;;1.77;100.00;100716.88;5054598;28;20199;-73
2023/01/08 04:17:33;;;;;;;2.77;2.10;;;;;;;1.78;100.00;100715.19;5067545;28;20199;-74
2023/01/08 04:20:01;;;;;;;1.40;1.40;;;;;;;1.79;100.00;100722.94;5074355;28;20207;-74
2023/01/08 04:22:27;;;;;;;0.90;0.90;;;;;;;1.74;100.00;100728.56;5017496;28;20246;-73
2023/01/08 04:24:54;;;;;;;2.43;2.00;;;;;;;1.73;100.00;100726.81;5059546;28;20669;-74
2023/01/08 04:27:21;;;;;;;1.73;1.50;;;;;;;1.78;100.00;100722.88;5073976;28;20207;-74
2023/01/08 04:29:48;;;;;;;0.80;0.80;;;;;;;1.80;100.00;100718.72;5072427;28;20283;-74
2023/01/08 04:32:14;;;;;;;1.00;1.00;;;;;;;1.76;100.00;100726.97;5063343;28;20634;-74
2023/01/08 04:34:41;;;;;;;1.10;1.10;;;;;;;1.66;100.00;100715.34;5054139;28;20199;-74
2023/01/08 04:37:09;;;;;;;2.00;2.00;;;;;;;1.68;100.00;100715.41;5054319;28;20203;-74
2023/01/08 04:39:36;;;;;;;0.90;0.90;;;;;;;1.59;100.00;100713.19;5054150;28;20203;-74
2023/01/08 04:42:03;;;;;;;1.07;1.07;;;;;;;1.58;100.00;100708.88;5068525;28;20202;-74
2023/01/08 04:44:30;;;;;;;1.33;1.33;;;;;;;1.58;100.00;100715.66;5072899;28;20640;-74
2023/01/08 04:46:57;;;;;;;2.20;2.10;;;;;;;1.59;100.00;100712.31;5056228;28;20191;-74
2023/01/08 04:49:23;;;;;;;1.67;1.67;;;;;;;1.57;100.00;100711.34;5036122;28;20207;-74
2023/01/08 04:51:50;;;;;;;0.90;0.90;;;;;;;1.49;100.00;100696.44;5061404;28;20231;-74
2023/01/08 04:54:18;;;;;;;1.53;1.53;;;;;;;1.59;100.00;100723.41;5054836;28;20207;-74
2023/01/08 04:56:45;;;;;;;0.83;0.83;;;;;;;1.55;100.00;100716.34;5064929;28;20674;-74
2023/01/08 04:59:12;;;;;;;0.90;0.90;;;;;;;1.44;100.00;100697.81;5035045;28;20658;-74
2023/01/08 05:01:38;;;;;;;0.90;0.90;;;;;;;1.53;100.00;100715.41;5035089;28;20218;-74
2023/01/08 05:04:05;;;;;;;0.83;0.83;;;;;;;0.91;100.00;100596.63;5068312;28;20204;-74
2023/01/08 05:06:33;;;;;;;1.00;1.00;;;;;;;1.56;100.00;100712.13;5053750;28;20196;-74
2023/01/08 05:09:00;;;;;;;1.53;1.53;;;;;;;1.59;100.00;100705.53;5053674;28;20207;-73
2023/01/08 05:11:28;;;;;;;1.13;1.13;;;;;;;1.58;100.00;100710.53;5053671;28;20235;-74
2023/01/08 05:13:55;;;;;;;1.60;1.60;;;;;;;1.54;100.00;100711.13;5053272;28;20192;-73
2023/01/08 05:16:22;;;;;;;1.20;1.20;;;;;;;1.44;100.00;100705.50;5051546;28;20207;-74
2023/01/08 05:18:49;;;;;;;1.23;1.23;;;;;;;1.35;100.00;100704.06;5052516;28;20210;-73
2023/01/08 05:21:17;;;;;;;0.80;0.80;;;;;;;1.42;100.00;100718.97;5052808;28;20196;-73
2023/01/08 05:23:46;;;;;;;1.00;1.00;;;;;;;1.39;100.00;100719.63;5052946;28;20230;-73
2023/01/08 05:26:13;;;;;;;0.90;0.90;;;;;;;1.31;100.00;100713.19;5052755;28;20690;-73
2023/01/08 05:28:42;;;;;;;1.10;1.10;;;;;;;1.32;100.00;100708.97;5047712;28;20275;-73
2023/01/08 05:31:10;;;;;;;2.93;2.83;;;;;;;1.32;100.00;100716.63;5053722;28;20274;-74
2023/01/08 05:33:37;;;;;;;0.90;0.90;;;;;;;1.35;100.00;100712.59;5052828;28;20192;-74
2023/01/08 05:36:05;;;;;;;0.90;0.90;;;;;;;1.37;100.00;100716.13;5063649;28;20218;-73
2023/01/08 05:38:32;;;;;;;0.80;0.80;;;;;;;1.38;100.00;100712.78;5073178;28;20203;-74
2023/01/08 05:40:59;;;;;;;0.90;0.90;;;;;;;1.54;100.00;100713.69;5053089;28;20678;-74
2023/01/08 05:43:26;;;;;;;1.27;1.27;;;;;;;1.36;100.00;100691.34;5053285;28;20196;-73
2023/01/08 05:45:54;;;;;;;0.80;0.80;;;;;;;1.40;100.00;100706.09;5064097;28;20742;-73
2023/01/08 05:48:21;;;;;;;1.10;1.10;;;;;;;1.33;100.00;100709.06;5058269;28;20204;-75
2023/01/08 05:50:49;;;;;;;0.80;0.80;;;;;;;1.35;100.00;100699.84;5068140;28;20285;-74
2023/01/08 05:53:16;;;;;;;0.90;0.90;;;;;;;1.35;100.00;100710.06;5057653;28;20287;-74
2023/01/08 05:55:43;;;;;;;0.70;0.70;;;;;;;1.29;100.00;100717.31;5054779;28;20196;-75
2023/01/08 05:58:10;;;;;;;2.73;2.63;;;;;;;1.13;100.00;100724.84;5051340;28;20212;-74
2023/01/08 06:00:38;;;;;;;0.80;0.80;;;;;;;0.69;100.00;100670.09;5068572;28;20199;-74
2023/01/08 06:03:06;;;;;;;1.17;1.17;;;;;;;0.89;100.00;100729.25;5038002;28;20280;-74
2023/01/08 06:05:33;;;;;;;1.10;1.10;;;;;;;0.90;100.00;100741.25;5015893;28;20206;-74
2023/01/08 06:08:00;;;;;;;0.90;0.90;;;;;;;0.92;100.00;100743.91;5063603;28;20207;-74
2023/01/08 06:10:27;;;;;;;0.87;0.87;;;;;;;0.81;100.00;100719.38;5066804;28;20190;-74
2023/01/08 06:12:54;;;;;;;1.63;1.63;;;;;;;0.79;100.00;100723.47;5061092;28;20256;-75
2023/01/08 06:15:21;;;;;;;1.10;1.10;;;;;;;0.83;100.00;100748.41;5052730;28;20221;-76
2023/01/08 06:17:48;;;;;;;0.90;0.90;;;;;;;1.04;100.00;100742.09;5051239;28;20204;-74
2023/01/08 06:20:16;;;;;;;1.00;1.00;;;;;;;1.01;100.00;100739.38;5050875;28;20214;-75
2023/01/08 06:22:43;;;;;;;3.57;3.33;;;;;;;0.81;100.00;100693.84;5052179;28;20214;-76
2023/01/08 06:25:10;;;;;;;0.70;0.70;;;;;;;0.81;100.00;100704.06;5052146;28;20235;-75
2023/01/08 06:27:37;;;;;;;1.30;1.30;;;;;;;0.64;100.00;100715.75;5052116;28;20658;-75
2023/01/08 06:30:04;;;;;;;0.90;0.90;;;;;;;0.64;100.00;100719.97;5058423;28;20257;-74
2023/01/08 06:32:31;;;;;;;1.10;1.10;;;;;;;0.91;100.00;100737.03;5060723;28;20226;-74
2023/01/08 06:34:58;;;;;;;0.80;0.80;;;;;;;1.02;100.00;100736.03;5054134;28;20204;-74
2023/01/08 06:37:26;;;;;;;1.00;1.00;;;;;;;1.02;100.00;100730.03;5060894;28;20207;-74
2023/01/08 06:39:53;;;;;;;1.53;1.53;;;;;;;1.14;100.00;100752.09;5051223;28;20666;-74
2023/01/08 06:42:19;;;;;;;2.70;2.60;;;;;;;1.19;100.00;100730.31;5016412;28;20642;-75
2023/01/08 06:44:46;;;;;;;0.80;0.80;;;;;;;1.30;100.00;100749.75;5051276;28;20206;-73
2023/01/08 06:47:13;;;;;;;0.80;0.80;;;;;;;1.13;100.00;100719.72;5051296;28;20218;-73
2023/01/08 06:49:40;;;;;;;0.80;0.80;;;;;;;1.21;100.00;100723.66;5044776;28;20203;-73
2023/01/08 06:52:07;;;;;;;0.80;0.80;;;;;;;1.43;100.00;100757.34;5050553;28;20296;-74
2023/01/08 06:54:35;;;;;;;1.07;1.07;;;;;;;1.50;100.00;100754.41;5016052;28;20681;-75
2023/01/08 06:57:01;;;;;;;0.70;0.70;;;;;;;1.47;100.00;100761.88;5065072;28;20219;-74
2023/01/08 06:59:28;;;;;;;0.90;0.90;;;;;;;1.59;100.00;100750.66;5060738;28;20206;-75
2023/01/08 07:01:55;;;;;;;0.90;0.90;;;;;;;1.69;100.00;100760.63;5067471;28;20206;-75
2023/01/08 07:04:22;;;;;;;1.37;1.33;;;;;;;1.68;100.00;100753.75;5058525;28;20226;-76
2023/01/08 07:06:49;;;;;;;0.90;0.90;;;;;;;1.84;100.00;100780.34;5067942;28;20571;-76
2023/01/08 07:09:16;;;;;;;1.00;1.00;;;;;;;1.90;100.00;100784.94;5069577;28;20569;-76
2023/01/08 07:11:44;;;;;;;0.80;0.80;;;;;;;1.98;100.00;100796.50;5071062;28;20709;-75
2023/01/08 07:14:11;;;;;;;1.03;1.03;;;;;;;1.86;100.00;100790.66;5070680;28;20202;-75
2023/01/08 07:16:37;;;;;;;0.90;0.90;;;;;;;1.70;100.00;100782.84;5071141;28;20585;-75
2023/01/08 07:19:04;;;;;;;2.00;1.90;;;;;;;1.71;100.00;100792.28;5070612;28;20681;-75
2023/01/08 07:21:31;;;;;;;0.90;0.90;;;;;;;1.88;100.00;100804.44;5070902;28;20211;-75
2023/01/08 07:23:58;;;;;;;0.80;0.80;;;;;;;0.97;100.00;100640.41;5069995;28;20210;-74
2023/01/08 07:26:25;;;;;;;0.90;0.90;;;;;;;1.78;100.00;100777.44;5048599;28;20267;-76
2023/01/08 07:28:53;;;;;;;1.00;1.00;;;;;;;1.98;100.00;100809.31;5050850;28;20241;-76
2023/01/08 07:31:20;;;;;;;1.00;1.00;;;;;;;1.96;100.00;100804.06;5046732;28;20684;-74
2023/01/08 07:33:47;;;;;;;0.70;0.70;;;;;;;2.12;100.00;100799.88;5046314;28;20196;-75
2023/01/08 07:36:14;;;;;;;0.90;0.90;;;;;;;2.03;100.00;100795.13;5050127;28;20644;-74
2023/01/08 07:38:41;;;;;;;0.83;0.83;;;;;;;1.69;100.00;100787.06;5047587;28;20204;-75
2023/01/08 07:41:08;;;;;;;2.37;2.27;;;;;;;1.86;100.00;100796.66;5050667;28;20203;-73
2023/01/08 07:43:35;;;;;;;2.70;2.60;;;;;;;1.95;100.00;100827.03;5054689;28;20203;-75
2023/01/08 07:46:04;;;;;;;4.03;2.40;;;;;;;1.96;100.00;100826.25;5055151;28;20278;-75
2023/01/08 07:48:30;;;;;;;2.80;2.70;;;;;;;1.58;100.00;100808.53;5054972;28;20191;-74
2023/01/08 07:51:02;;;;;;;1.10;1.10;;;;;;;1.75;100.00;100813.00;5054459;28;20701;-74
2023/01/08 07:53:29;;;;;;;0.83;0.83;;;;;;;1.94;100.00;100815.00;5054477;28;20207;-75
2023/01/08 07:55:59;;;;;;;1.40;1.40;;;;;;;1.62;100.00;100727.81;5063213;28;20210;-74
2023/01/08 07:58:26;;;;;;;1.03;1.03;;;;;;;2.25;100.00;100816.06;5054430;28;20223;-75
2023/01/08 08:00:53;;;;;;;0.93;0.93;;;;;;;2.24;100.00;100798.97;5063329;28;20230;-75
2023/01/08 08:03:21;;;;;;;1.00;1.00;;;;;;;2.56;100.00;100823.00;5054187;28;20249;-76
2023/01/08 08:05:48;;;;;;;0.80;0.80;;;;;;;2.59;100.00;100800.13;5054523;28;20207;-76
2023/01/08 08:08:15;;;;;;;0.60;0.60;;;;;;;2.64;100.00;100829.44;5054189;28;20203;-75
2023/01/08 08:10:42;;;;;;;2.17;2.07;;;;;;;2.49;100.00;100830.31;5024636;28;20199;-71
2023/01/08 08:13:10;;;;;;;0.80;0.80;;;;;;;2.52;100.00;100826.16;5057052;28;20227;-77
2023/01/08 08:15:38;;;;;;;4.43;2.40;;;;;;;2.60;100.00;100833.50;5062823;28;20199;-75
2023/01/08 08:18:05;;;;;;;2.17;1.60;;;;;;;2.29;100.00;100823.13;5018959;28;20237;-75
2023/01/08 08:20:34;;;;;;;0.90;0.90;;;;;;;2.29;100.00;100820.56;5054023;28;20203;-76
2023/01/08 08:23:01;;;;;;;1.97;1.87;;;;;;;2.52;100.00;100803.13;5054011;28;20215;-75
2023/01/08 08:25:28;;;;;;;0.83;0.83;;;;;;;2.60;100.00;100796.78;5062888;28;20647;-75
2023/01/08 08:27:57;;;;;;;1.57;1.57;;;;;;;2.94;100.00;100834.66;5053995;28;20199;-74
2023/01/08 08:30:25;;;;;;;0.80;0.80;;;;;;;2.63;100.00;100792.72;5054137;28;20290;-74
2023/01/08 08:32:52;;;;;;;0.80;0.80;;;;;;;2.78;100.00;100782.47;5054154;28;20281;-75
2023/01/08 08:35:19;;;;;;;0.80;0.80;;;;;;;2.96;100.00;100804.88;5048933;28;20683;-75
2023/01/08 08:37:47;;;;;;;4.03;3.70;;;;;;;3.12;100.00;100821.09;5037168;28;20606;-76
2023/01/08 08:40:14;;;;;;;1.10;1.10;;;;;;;3.22;100.00;100831.06;5063197;28;20203;-75
2023/01/08 08:42:41;;;;;;;0.80;0.80;;;;;;;3.26;100.00;100836.47;5071440;28;20202;-75
2023/01/08 08:45:08;;;;;;;3.53;3.33;;;;;;;3.18;100.00;100819.78;5067757;28;20207;-75
2023/01/08 08:47:35;;;;;;;0.80;0.80;;;;;;;3.05;100.00;100772.91;5053726;28;20658;-75
2023/01/08 08:50:02;;;;;;;1.17;1.17;;;;;;;3.54;100.00;100846.56;5053864;28;20238;-75
2023/01/08 08:52:30;;;;;;;0.80;0.80;;;;;;;3.18;100.00;100837.69;5053920;28;20223;-74
2023/01/08 08:54:58;;;;;;;2.93;2.83;;;;;;;3.24;100.00;100842.31;5055637;28;20207;-75
2023/01/08 08:57:25;;;;;;;1.33;1.23;;;;;;;3.01;100.00;100843.56;5073615;28;20323;-74
2023/01/08 08:59:52;;;;;;;1.27;1.27;;;;;;;2.95;100.00;100833.88;5058265;28;20207;-75
2023/01/08 09:02:19;;;;;;;3.50;3.30;;;;;;;3.11;100.00;100825.34;5054289;28;20195;-75
2023/01/08 09:04:46;;;;;;;1.53;1.53;;;;;;;3.04;100.00;100822.34;5053479;28;20203;-75
2023/01/08 09:07:12;;;;;;;1.00;1.00;;;;;;;3.17;100.00;100815.47;5053486;28;20199;-76
2023/01/08 09:09:39;;;;;;;3.43;3.23;;;;;;;3.20;100.00;100818.19;5066339;28;20206;-75
2023/01/08 09:12:08;;;;;;;2.70;2.60;;;;;;;3.25;100.00;100838.91;5070191;28;20222;-77
2023/01/08 09:14:34;;;;;;;6.60;6.13;;;;;;;3.13;100.00;100828.00;5018530;28;20207;-76
2023/01/08 09:17:01;;;;;;;1.90;1.80;;;;;;;3.27;100.00;100821.97;5052789;28;20280;-75
2023/01/08 09:19:28;;;;;;;2.00;1.90;;;;;;;3.49;100.00;100830.94;5061739;28;20195;-75
2023/01/08 09:21:55;;;;;;;1.57;1.57;;;;;;;3.54;100.00;100820.03;5058963;28;20245;-74
2023/01/08 09:24:21;;;;;;;0.80;0.80;;;;;;;3.43;100.00;100799.81;5038358;28;20206;-75
2023/01/08 09:26:48;;;;;;;0.83;0.83;;;;;;;3.54;100.00;100814.91;5064386;28;20238;-75
2023/01/08 09:29:16;;;;;;;0.90;0.90;;;;;;;3.28;100.00;100822.03;5034562;28;20440;-75
2023/01/08 09:31:43;;;;;;;10.13;2.70;;;;;;;3.54;100.00;100810.66;5052795;28;20219;-75
2023/01/08 09:34:10;;;;;;;3.03;2.93;;;;;;;3.87;100.00;100814.16;5052908;28;20755;-75
2023/01/08 09:36:36;;;;;;;1.37;1.37;;;;;;;3.70;100.00;100814.94;5067759;28;20266;-75
2023/01/08 09:39:04;;;;;;;1.60;1.60;;;;;;;3.38;100.00;100811.53;5072468;28;20678;-76
2023/01/08 09:41:33;;;;;;;1.57;1.47;;;;;;;3.52;100.00;100803.69;5072942;28;20198;-75
2023/01/08 09:44:02;;;;;;;1.20;1.20;;;;;;;3.44;100.00;100791.34;5058690;28;20225;-76
2023/01/08 09:46:31;;;;;;;1.20;1.20;;;;;;;3.40;100.00;100761.22;5062319;28;20748;-76
2023/01/08 09:49:04;;;;;;;0.80;0.80;;;;;;;3.49;100.00;100771.09;5066537;28;20210;-75
2023/01/08 09:51:34;;;;;;;0.90;0.90;;;;;;;3.53;100.00;100790.97;5027149;28;20666;-75
2023/01/08 09:54:01;;;;;;;0.90;0.90;;;;;;;3.76;100.00;100787.94;5058256;28;20203;-76
2023/01/08 09:56:29;;;;;;;1.10;1.10;;;;;;;3.64;100.00;100791.56;5063895;28;20214;-75
2023/01/08 09:58:59;;;;;;;1.00;1.00;;;;;;;3.79;100.00;100784.66;5038329;28;20200;-76
2023/01/08 10:01:29;;;;;;;0.77;0.77;;;;;;;3.97;100.00;100749.72;5066413;28;20209;-76
2023/01/08 10:04:04;;;;;;;1.40;1.40;;;;;;;3.95;100.00;100774.41;5047515;28;20207;-75
2023/01/08 10:06:31;;;;;;;1.90;1.83;;;;;;;4.19;100.00;100770.53;5050966;28;20203;-75
2023/01/08 10:08:58;;;;;;;1.37;1.37;;;;;;;4.01;100.00;100746.50;5038331;28;20682;-76
2023/01/08 10:11:28;;;;;;;2.50;2.40;;;;;;;4.18;100.00;100765.31;5052213;28;20207;-76
2023/01/08 10:13:57;;;;;;;0.80;0.80;;;;;;;4.37;100.00;100758.63;5065832;28;20228;-76
2023/01/08 10:16:30;;;;;;;1.27;1.27;;;;;;;4.28;100.00;100754.75;5052172;28;20213;-76
2023/01/08 10:19:00;;;;;;;1.10;1.10;;;;;;;4.37;100.00;100744.91;5056329;28;20206;-76
2023/01/08 10:21:31;;;;;;;0.83;0.83;;;;;;;4.49;100.00;100768.66;5072113;28;20653;-76
2023/01/08 10:23:59;;;;;;;0.80;0.80;;;;;;;4.55;100.00;100752.66;5054202;28;20203;-77
2023/01/08 10:26:29;;;;;;;0.80;0.80;;;;;;;4.20;100.00;100763.72;5056361;28;20713;-76
2023/01/08 10:29:11;;;;;;;1.10;1.10;;;;;;;4.36;100.00;100731.19;5054137;28;20210;-76
2023/01/08 10:31:50;;;;;;;0.80;0.80;;;;;;;4.80;100.00;100750.47;5038267;28;20203;-76
2023/01/08 10:34:32;;;;;;;0.70;0.70;;;;;;;4.45;100.00;100748.75;5051373;28;20257;-75
2023/01/08 10:36:59;;;;;;;1.47;1.40;;;;;;;4.24;100.00;100735.75;5039629;28;20254;-75
2023/01/08 10:39:28;;;;;;;2.50;2.40;;;;;;;4.43;100.00;100728.13;5051280;28;20693;-76
2023/01/08 10:41:57;;;;;;;0.50;0.50;;;;;;;4.53;100.00;100738.88;5051424;28;20696;-75
2023/01/08 10:44:26;;;;;;;1.10;1.10;;;;;;;4.45;100.00;100715.38;5051904;28;20261;-76
2023/01/08 10:46:55;;;;;;;3.00;2.87;;;;;;;5.47;100.00;100711.69;5051156;28;20685;-76
2023/01/08 10:49:32;;;;;;;0.73;0.73;;;;;;;4.78;100.00;100716.16;5051315;28;20203;-76
2023/01/08 10:52:00;;;;;;;0.80;0.80;;;;;;;4.62;100.00;100729.03;5051213;28;20623;-76
2023/01/08 10:54:32;;;;;;;0.93;0.93;;;;;;;4.60;100.00;100716.13;5033114;28;20207;-75
2023/01/08 10:56:59;;;;;;;1.00;1.00;;;;;;;4.54;100.00;100720.06;5051219;28;20199;-76
2023/01/08 10:59:26;;;;;;;0.90;0.90;;;;;;;4.03;100.00;100626.91;5051395;28;20202;-75
2023/01/08 11:01:55;;;;;;;1.00;1.00;;;;;;;4.57;100.00;100715.97;5065324;28;20203;-75
2023/01/08 11:04:28;;;;;;;1.57;1.57;;;;;;;4.66;100.00;100715.53;5051222;28;20533;-75
2023/01/08 11:06:59;;;;;;;1.20;1.20;;;;;;;4.57;100.00;100715.97;5030024;28;20642;-74
2023/01/08 11:09:31;;;;;;;2.60;2.50;;;;;;;4.42;100.00;100722.94;5040288;28;20291;-74
2023/01/08 11:11:59;;;;;;;27.67;2.97;;;;;;;4.49;100.00;100719.88;5016292;28;20238;-75
2023/01/08 11:14:29;;;;;;;0.80;0.80;;;;;;;4.24;100.00;100725.47;5051128;28;20204;-74
2023/01/08 11:16:58;;;;;;;6.63;4.93;;;;;;;4.37;100.00;100686.75;5050709;28;20288;-75
2023/01/08 11:19:27;;;;;;;10.03;2.60;;;;;;;4.56;100.00;100701.38;5015680;28;20200;-75
2023/01/08 11:21:57;;;;;;;1.00;1.00;;;;;;;4.55;100.00;100703.88;5050813;28;20200;-75
2023/01/08 11:24:27;;;;;;;4.60;2.40;;;;;;;4.74;100.00;100697.13;5050556;28;20719;-74
2023/01/08 11:26:58;;;;;;;2.07;2.07;;;;;;;4.81;100.00;100706.00;5059905;28;20291;-75
2023/01/08 11:29:31;;;;;;;1.00;1.00;;;;;;;4.68;100.00;100683.97;5052796;28;20195;-76